createdAt,value
2023-08-23T00:01:41.468Z,5.90
2023-08-23T00:04:09.653Z,5.40
2023-08-23T00:06:37.912Z,5.50
2023-08-23T00:09:06.848Z,5.00
2023-08-23T00:11:35.000Z,5.70
2023-08-23T00:14:04.164Z,5.70
2023-08-23T00:16:32.497Z,6.20
2023-08-23T00:19:00.826Z,5.70
2023-08-23T00:21:31.665Z,5.50
2023-08-23T00:23:59.859Z,5.80
2023-08-23T00:26:28.113Z,4.40
2023-08-23T00:28:56.481Z,5.90
2023-08-23T00:31:24.561Z,5.10
2023-08-23T00:33:52.665Z,7.30
2023-08-23T00:36:20.694Z,6.10
2023-08-23T00:38:48.881Z,6.20
2023-08-23T00:41:17.153Z,6.00
2023-08-23T00:43:45.221Z,6.40
2023-08-23T00:46:15.085Z,7.20
2023-08-23T00:48:44.947Z,5.30
2023-08-23T00:51:15.262Z,5.40
2023-08-23T00:53:43.479Z,6.30
2023-08-23T00:56:13.062Z,5.90
2023-08-23T00:58:41.474Z,5.70
2023-08-23T01:01:09.701Z,7.00
2023-08-23T01:03:38.181Z,5.40
2023-08-23T01:06:27.648Z,6.50
2023-08-23T01:09:25.856Z,4.90
2023-08-23T01:12:20.208Z,6.50
2023-08-23T01:14:54.374Z,5.50
2023-08-23T01:17:23.927Z,5.90
2023-08-23T01:19:53.408Z,5.90
2023-08-23T01:22:24.791Z,5.40
2023-08-23T01:24:54.698Z,5.30
2023-08-23T01:27:22.870Z,6.60
2023-08-23T01:29:50.964Z,5.70
2023-08-23T01:32:32.543Z,5.30
2023-08-23T01:35:24.050Z,6.30
2023-08-23T01:37:56.213Z,5.00
2023-08-23T01:40:25.144Z,6.20
2023-08-23T01:42:54.909Z,5.10
2023-08-23T01:45:22.980Z,5.30
2023-08-23T01:47:51.618Z,5.20
2023-08-23T01:50:19.849Z,5.70
2023-08-23T01:52:47.962Z,5.60
2023-08-23T01:55:19.768Z,6.90
2023-08-23T01:57:48.735Z,4.80
2023-08-23T02:00:17.346Z,6.40
2023-08-23T02:02:45.557Z,5.80
2023-08-23T02:05:13.857Z,5.50
2023-08-23T02:07:42.067Z,5.80
2023-08-23T02:10:10.450Z,6.30
2023-08-23T02:12:38.545Z,7.30
2023-08-23T02:15:07.502Z,6.60
2023-08-23T02:17:35.596Z,5.80
2023-08-23T02:20:04.827Z,6.70
2023-08-23T02:22:33.147Z,5.80
2023-08-23T02:25:01.331Z,5.60
2023-08-23T02:27:29.589Z,5.00
2023-08-23T02:29:58.077Z,5.30
2023-08-23T02:32:26.594Z,5.90
2023-08-23T02:34:54.838Z,6.00
2023-08-23T02:37:22.843Z,5.00
2023-08-23T02:39:50.828Z,6.20
2023-08-23T02:42:18.843Z,7.10
2023-08-23T02:44:46.922Z,5.70
2023-08-23T02:47:15.187Z,5.90
2023-08-23T02:49:44.179Z,6.80
2023-08-23T02:52:12.300Z,5.20
2023-08-23T02:54:40.931Z,6.50
2023-08-23T02:57:09.124Z,5.90
2023-08-23T02:59:37.292Z,5.00
2023-08-23T03:02:05.670Z,5.30
2023-08-23T03:04:34.036Z,4.70
2023-08-23T03:07:01.988Z,5.80
2023-08-23T03:09:30.335Z,5.90
2023-08-23T03:11:59.599Z,7.10
2023-08-23T03:14:27.746Z,5.00
2023-08-23T03:16:56.039Z,4.90
2023-08-23T03:19:24.215Z,6.10
2023-08-23T03:21:52.326Z,5.20
2023-08-23T03:24:20.550Z,5.70
2023-08-23T03:26:49.230Z,5.20
2023-08-23T03:29:18.425Z,5.70
2023-08-23T03:31:47.427Z,4.90
2023-08-23T03:34:17.125Z,4.90
2023-08-23T03:36:45.347Z,6.10
2023-08-23T03:39:13.481Z,8.70
2023-08-23T03:41:41.645Z,6.70
2023-08-23T03:44:09.819Z,6.90
2023-08-23T03:46:38.076Z,7.80
2023-08-23T03:49:06.268Z,5.10
2023-08-23T03:51:34.462Z,5.50
2023-08-23T03:54:02.932Z,5.40
2023-08-23T03:56:32.215Z,8.00
2023-08-23T03:59:00.904Z,6.00
2023-08-23T04:01:29.136Z,4.60
2023-08-23T04:03:57.511Z,6.50
2023-08-23T04:06:25.831Z,7.00
2023-08-23T04:08:53.907Z,5.00
2023-08-23T04:11:21.975Z,5.40
2023-08-23T04:13:50.063Z,7.50
2023-08-23T04:16:18.249Z,6.30
2023-08-23T04:18:46.530Z,9.60
2023-08-23T04:21:14.672Z,6.40
2023-08-23T04:23:42.985Z,7.40
2023-08-23T04:26:11.215Z,7.40
2023-08-23T04:28:39.292Z,6.40
2023-08-23T04:31:07.358Z,6.90
2023-08-23T04:33:45.648Z,5.70
2023-08-23T04:36:13.839Z,8.10
2023-08-23T04:38:42.024Z,6.90
2023-08-23T04:41:10.597Z,8.80
2023-08-23T04:43:38.763Z,7.10
2023-08-23T04:46:08.574Z,8.40
2023-08-23T04:48:37.189Z,6.80
2023-08-23T04:51:10.326Z,7.50
2023-08-23T04:53:39.109Z,7.70
2023-08-23T04:56:08.048Z,6.10
2023-08-23T04:58:36.353Z,7.10
2023-08-23T05:01:05.975Z,6.10
2023-08-23T05:03:36.265Z,7.80
2023-08-23T05:06:04.512Z,7.20
2023-08-23T05:08:35.441Z,8.50
2023-08-23T05:11:11.340Z,7.70
2023-08-23T05:13:39.570Z,7.50
2023-08-23T05:16:07.840Z,6.50
2023-08-23T05:18:36.326Z,8.70
2023-08-23T05:21:04.857Z,6.80
2023-08-23T05:23:33.089Z,6.80
2023-08-23T05:26:04.042Z,6.80
2023-08-23T05:28:33.903Z,6.00
2023-08-23T05:31:04.412Z,6.70
2023-08-23T05:33:34.116Z,6.80
2023-08-23T05:36:04.695Z,9.50
2023-08-23T05:38:32.977Z,8.80
2023-08-23T05:41:02.345Z,9.00
2023-08-23T05:43:30.402Z,7.90
2023-08-23T05:45:58.939Z,12.00
2023-08-23T05:48:27.446Z,11.70
2023-08-23T05:50:55.707Z,9.90
2023-08-23T05:53:23.922Z,10.30
2023-08-23T05:55:52.281Z,9.40
2023-08-23T05:58:20.410Z,7.60
2023-08-23T06:00:49.837Z,5.60
2023-08-23T06:03:18.461Z,9.00
2023-08-23T06:05:47.127Z,6.40
2023-08-23T06:08:15.344Z,6.70
2023-08-23T06:10:43.333Z,9.20
2023-08-23T06:13:11.336Z,6.60
2023-08-23T06:15:39.475Z,7.00
2023-08-23T06:18:07.663Z,7.20
2023-08-23T06:20:35.752Z,6.40
2023-08-23T06:23:04.206Z,6.40
2023-08-23T06:25:32.347Z,6.90
2023-08-23T06:28:00.559Z,10.10
2023-08-23T06:30:28.736Z,10.00
2023-08-23T06:32:57.423Z,6.80
2023-08-23T06:35:27.670Z,8.10
2023-08-23T06:37:55.875Z,10.00
2023-08-23T06:40:24.134Z,7.80
2023-08-23T06:42:52.333Z,9.10
2023-08-23T06:45:20.348Z,9.70
2023-08-23T06:47:48.871Z,8.00
2023-08-23T06:50:17.394Z,5.00
2023-08-23T06:52:46.207Z,5.20
2023-08-23T06:55:14.526Z,8.00
2023-08-23T06:57:42.646Z,8.20
2023-08-23T07:00:11.621Z,4.90
2023-08-23T07:02:40.140Z,5.20
2023-08-23T07:05:09.616Z,4.80
2023-08-23T07:07:37.672Z,4.60
2023-08-23T07:10:18.029Z,7.20
2023-08-23T07:12:54.255Z,6.80
2023-08-23T07:15:22.538Z,4.60
2023-08-23T07:17:50.899Z,4.80
2023-08-23T07:20:19.399Z,5.20
2023-08-23T07:22:47.569Z,3.60
2023-08-23T07:25:15.844Z,5.90
2023-08-23T07:27:44.344Z,5.40
2023-08-23T07:30:13.589Z,6.40
2023-08-23T07:32:41.798Z,3.80
2023-08-23T07:35:10.711Z,6.90
2023-08-23T07:37:39.705Z,4.40
2023-08-23T07:40:10.874Z,6.40
2023-08-23T07:42:39.397Z,4.60
2023-08-23T07:45:09.115Z,5.50
2023-08-23T07:47:37.844Z,6.50
2023-08-23T07:50:07.300Z,3.80
2023-08-23T07:52:36.923Z,4.60
2023-08-23T07:55:06.570Z,5.10
2023-08-23T07:57:34.890Z,3.30
2023-08-23T08:00:03.396Z,4.10
2023-08-23T08:02:34.700Z,5.60
2023-08-23T08:05:03.216Z,4.40
2023-08-23T08:08:01.376Z,4.20
2023-08-23T08:10:21.371Z,5.10
2023-08-23T08:12:49.746Z,4.00
2023-08-23T08:15:17.932Z,5.60
2023-08-23T08:17:46.523Z,4.60
2023-08-23T08:20:15.068Z,3.00
2023-08-23T08:22:43.654Z,4.80
2023-08-23T08:25:14.129Z,3.30
2023-08-23T08:27:43.044Z,4.00
2023-08-23T08:30:11.866Z,4.20
2023-08-23T08:32:41.985Z,2.90
2023-08-23T08:35:10.848Z,2.50
2023-08-23T08:37:39.145Z,3.30
2023-08-23T08:40:09.034Z,3.90
2023-08-23T08:42:37.742Z,3.60
2023-08-23T08:45:07.433Z,4.50
2023-08-23T08:47:35.852Z,3.10
2023-08-23T08:50:04.512Z,2.80
2023-08-23T08:52:32.847Z,4.10
2023-08-23T08:55:02.424Z,3.50
2023-08-23T08:57:33.132Z,2.80
2023-08-23T09:00:02.419Z,3.20
2023-08-23T09:02:32.844Z,1.90
2023-08-23T09:05:02.957Z,3.30
2023-08-23T09:07:31.659Z,5.20
2023-08-23T09:09:59.792Z,2.50
2023-08-23T09:12:27.824Z,1.60
2023-08-23T09:14:56.180Z,3.70
2023-08-23T09:17:24.803Z,2.70
2023-08-23T09:19:53.160Z,3.20
2023-08-23T09:22:22.897Z,3.30
2023-08-23T09:24:51.247Z,4.50
2023-08-23T09:27:36.785Z,3.00
2023-08-23T09:30:07.493Z,4.10
2023-08-23T09:32:36.984Z,2.50
2023-08-23T09:35:15.874Z,1.60
2023-08-23T09:37:46.242Z,2.20
2023-08-23T09:40:19.173Z,3.30
2023-08-23T09:42:48.110Z,3.10
2023-08-23T09:45:21.758Z,2.40
2023-08-23T09:47:56.510Z,2.30
2023-08-23T09:50:26.013Z,3.30
2023-08-23T09:53:11.686Z,3.40
2023-08-23T09:55:40.782Z,1.80
2023-08-23T09:58:09.932Z,2.80
2023-08-23T10:00:39.151Z,2.80
2023-08-23T10:03:08.898Z,2.60
2023-08-23T10:05:37.508Z,2.50
2023-08-23T10:08:05.655Z,2.60
2023-08-23T10:10:34.319Z,3.70
2023-08-23T10:13:06.757Z,2.60
2023-08-23T10:15:38.973Z,2.40
2023-08-23T10:18:13.055Z,2.20
2023-08-23T10:20:42.678Z,2.80
2023-08-23T10:23:16.905Z,2.40
2023-08-23T10:25:46.392Z,1.90
2023-08-23T10:28:17.633Z,2.10
2023-08-23T10:30:52.628Z,1.80
2023-08-23T10:33:22.405Z,2.30
2023-08-23T10:35:50.540Z,2.40
2023-08-23T10:38:18.582Z,3.10
2023-08-23T10:40:48.812Z,2.40
2023-08-23T10:43:21.646Z,2.00
2023-08-23T10:46:10.321Z,1.60
2023-08-23T10:48:40.562Z,3.00
2023-08-23T10:51:08.759Z,3.00
2023-08-23T10:53:36.805Z,2.30
2023-08-23T10:56:05.112Z,2.60
2023-08-23T10:58:34.454Z,2.50
2023-08-23T11:01:03.633Z,2.50
2023-08-23T11:03:33.511Z,2.80
2023-08-23T11:06:02.656Z,2.70
2023-08-23T11:08:31.220Z,1.90
2023-08-23T11:10:59.676Z,2.60
2023-08-23T11:13:27.742Z,2.30
2023-08-23T11:15:56.790Z,2.30
2023-08-23T11:18:25.455Z,2.40
2023-08-23T11:20:54.412Z,1.50
2023-08-23T11:23:22.396Z,1.70
2023-08-23T11:25:50.424Z,1.70
2023-08-23T11:28:20.803Z,2.10
2023-08-23T11:30:50.781Z,2.40
2023-08-23T11:33:19.128Z,2.50
2023-08-23T11:35:47.293Z,2.00
2023-08-23T11:38:15.427Z,2.90
2023-08-23T11:40:48.469Z,2.10
2023-08-23T11:43:22.853Z,2.20
2023-08-23T11:45:53.938Z,2.50
2023-08-23T11:48:24.129Z,3.20
2023-08-23T11:50:53.343Z,2.80
2023-08-23T11:53:21.360Z,2.10
2023-08-23T11:55:51.351Z,2.80
2023-08-23T11:58:19.490Z,2.80
2023-08-23T12:00:48.837Z,1.70
2023-08-23T12:03:17.797Z,2.50
2023-08-23T12:05:46.305Z,2.40
2023-08-23T12:08:14.694Z,1.30
2023-08-23T12:10:43.181Z,2.80
2023-08-23T12:13:13.681Z,2.20
2023-08-23T12:15:41.926Z,2.70
2023-08-23T12:18:10.153Z,2.30
2023-08-23T12:20:38.427Z,3.40
2023-08-23T12:23:06.700Z,2.50
2023-08-23T12:25:34.805Z,2.50
2023-08-23T12:28:02.929Z,2.40
2023-08-23T12:30:31.780Z,2.90
2023-08-23T12:32:59.862Z,2.10
2023-08-23T12:35:27.944Z,3.20
2023-08-23T12:37:56.036Z,2.50
2023-08-23T12:40:24.106Z,1.90
2023-08-23T12:42:53.298Z,2.50
2023-08-23T12:45:21.834Z,1.90
2023-08-23T12:47:50.338Z,1.60
2023-08-23T12:50:19.050Z,1.70
2023-08-23T12:52:47.234Z,2.10
2023-08-23T12:55:15.437Z,2.70
2023-08-23T12:57:43.874Z,2.20
2023-08-23T13:00:29.090Z,4.40
2023-08-23T13:02:58.798Z,3.80
2023-08-23T13:05:27.989Z,1.90
2023-08-23T13:07:56.125Z,3.90
2023-08-23T13:10:24.297Z,2.50
2023-08-23T13:12:52.571Z,2.00
2023-08-23T13:15:21.060Z,3.20
2023-08-23T13:17:49.666Z,2.70
2023-08-23T13:20:18.151Z,2.00
2023-08-23T13:22:46.836Z,3.20
2023-08-23T13:25:15.078Z,2.50
2023-08-23T13:27:43.246Z,2.40
2023-08-23T13:30:12.292Z,1.70
2023-08-23T13:32:40.619Z,3.00
2023-08-23T13:35:09.301Z,2.50
2023-08-23T13:37:37.592Z,2.10
2023-08-23T13:40:07.472Z,2.60
2023-08-23T13:42:37.264Z,2.80
2023-08-23T13:45:08.876Z,2.30
2023-08-23T13:47:38.211Z,2.90
2023-08-23T13:50:07.613Z,3.80
2023-08-23T13:52:35.935Z,2.50
2023-08-23T13:55:05.376Z,2.30
2023-08-23T13:57:33.623Z,2.80
2023-08-23T14:00:01.749Z,2.00
2023-08-23T14:02:29.977Z,2.70
2023-08-23T14:04:58.216Z,2.00
2023-08-23T14:07:27.062Z,1.80
2023-08-23T14:09:55.289Z,2.90
2023-08-23T14:12:23.469Z,2.10
2023-08-23T14:14:51.633Z,1.80
2023-08-23T14:17:19.914Z,2.10
2023-08-23T14:19:49.969Z,2.30
2023-08-23T14:22:18.392Z,2.20
2023-08-23T14:24:46.417Z,2.60
2023-08-23T14:27:15.573Z,2.90
2023-08-23T14:29:43.743Z,2.30
2023-08-23T14:32:12.858Z,3.30
2023-08-23T14:34:40.913Z,2.40
2023-08-23T14:37:09.085Z,2.70
2023-08-23T14:39:37.313Z,3.10
2023-08-23T14:42:05.598Z,3.20
2023-08-23T14:44:34.416Z,2.90
2023-08-23T14:47:02.603Z,2.90
2023-08-23T14:49:30.862Z,2.70
2023-08-23T14:51:59.039Z,3.30
2023-08-23T14:54:28.337Z,2.70
2023-08-23T14:56:56.408Z,2.20
2023-08-23T14:59:24.597Z,2.70
2023-08-23T15:01:52.857Z,2.80
2023-08-23T15:04:21.766Z,3.70
2023-08-23T15:06:49.830Z,3.00
2023-08-23T15:09:18.714Z,2.50
2023-08-23T15:11:46.916Z,2.50
2023-08-23T15:14:15.049Z,2.60
2023-08-23T15:16:43.164Z,3.50
2023-08-23T15:19:11.904Z,3.30
2023-08-23T15:21:40.079Z,3.90
2023-08-23T15:24:08.119Z,3.00
2023-08-23T15:26:36.230Z,3.10
2023-08-23T15:29:05.733Z,3.50
2023-08-23T15:31:33.935Z,2.40
2023-08-23T15:34:02.537Z,3.20
2023-08-23T15:36:32.303Z,2.30
2023-08-23T15:39:04.464Z,3.90
2023-08-23T15:41:32.595Z,3.30
2023-08-23T15:44:00.921Z,2.50
2023-08-23T15:46:29.515Z,2.10
2023-08-23T15:48:57.574Z,2.70
2023-08-23T15:51:25.837Z,3.40
2023-08-23T15:53:54.008Z,2.00
2023-08-23T15:56:22.091Z,3.80
2023-08-23T15:58:50.253Z,2.80
2023-08-23T16:01:18.762Z,3.00
2023-08-23T16:03:46.947Z,3.00
2023-08-23T16:06:14.976Z,2.70
2023-08-23T16:08:43.160Z,2.80
2023-08-23T16:11:11.215Z,2.60
2023-08-23T16:13:39.609Z,2.50
2023-08-23T16:16:07.746Z,3.40
2023-08-23T16:18:36.166Z,2.70
2023-08-23T16:21:04.469Z,4.10
2023-08-23T16:23:33.010Z,3.20
2023-08-23T16:26:03.394Z,2.60
2023-08-23T16:28:31.705Z,3.40
2023-08-23T16:30:59.789Z,4.00
2023-08-23T16:33:27.952Z,4.60
2023-08-23T16:35:56.263Z,4.40
2023-08-23T16:38:24.350Z,3.60
2023-08-23T16:40:52.371Z,4.00
2023-08-23T16:43:20.636Z,3.80
2023-08-23T16:45:48.864Z,2.80
2023-08-23T16:48:17.116Z,3.40
2023-08-23T16:50:45.258Z,3.20
2023-08-23T16:53:13.680Z,4.80
2023-08-23T16:55:41.809Z,4.90
2023-08-23T16:58:09.981Z,2.90
2023-08-23T17:00:38.206Z,5.00
2023-08-23T17:03:06.342Z,2.60
2023-08-23T17:05:35.387Z,3.80
2023-08-23T17:08:04.441Z,3.90
2023-08-23T17:10:33.269Z,4.30
2023-08-23T17:13:03.122Z,4.40
2023-08-23T17:15:31.784Z,4.60
2023-08-23T17:18:00.015Z,3.60
2023-08-23T17:20:28.286Z,3.40
2023-08-23T17:22:58.904Z,4.20
2023-08-23T17:25:27.866Z,4.60
2023-08-23T17:28:00.048Z,4.00
2023-08-23T17:30:29.956Z,3.30
2023-08-23T17:32:58.111Z,3.50
2023-08-23T17:35:26.401Z,4.10
2023-08-23T17:37:54.878Z,4.50
2023-08-23T17:40:23.167Z,4.50
2023-08-23T17:42:51.271Z,4.50
2023-08-23T17:45:19.811Z,3.60
2023-08-23T17:47:47.890Z,4.70
2023-08-23T17:50:16.376Z,3.20
2023-08-23T17:52:44.428Z,3.40
2023-08-23T17:55:13.424Z,4.00
2023-08-23T17:57:41.603Z,4.10
2023-08-23T18:00:10.956Z,3.50
2023-08-23T18:02:42.910Z,5.00
2023-08-23T18:05:11.273Z,3.70
2023-08-23T18:07:39.916Z,2.50
2023-08-23T18:10:09.540Z,3.90
2023-08-23T18:12:37.739Z,3.50
2023-08-23T18:15:06.782Z,4.20
2023-08-23T18:17:34.969Z,3.90
2023-08-23T18:20:03.174Z,5.40
2023-08-23T18:22:31.309Z,4.90
2023-08-23T18:24:59.376Z,5.20
2023-08-23T18:27:27.392Z,3.70
2023-08-23T18:29:55.521Z,4.00
2023-08-23T18:32:23.733Z,4.40
2023-08-23T18:34:51.866Z,6.10
2023-08-23T18:37:20.034Z,5.90
2023-08-23T18:39:48.222Z,4.30
2023-08-23T18:42:16.258Z,3.80
2023-08-23T18:44:44.349Z,3.70
2023-08-23T18:47:12.422Z,6.00
2023-08-23T18:49:42.334Z,4.60
2023-08-23T18:52:10.434Z,2.90
2023-08-23T18:54:38.632Z,5.10
2023-08-23T18:57:08.834Z,4.60
2023-08-23T18:59:38.329Z,4.40
2023-08-23T19:02:06.722Z,4.50
2023-08-23T19:04:34.954Z,3.80
2023-08-23T19:07:03.135Z,5.50
2023-08-23T19:09:31.199Z,5.60
2023-08-23T19:11:59.267Z,4.70
2023-08-23T19:14:27.499Z,4.80
2023-08-23T19:16:55.444Z,4.20
2023-08-23T19:19:23.644Z,4.40
2023-08-23T19:21:56.925Z,4.00
2023-08-23T19:24:26.081Z,4.90
2023-08-23T19:26:54.142Z,4.00
2023-08-23T19:29:22.827Z,4.70
2023-08-23T19:32:05.704Z,5.80
2023-08-23T19:34:34.698Z,4.70
2023-08-23T19:37:04.016Z,3.00
2023-08-23T19:39:33.540Z,4.60
2023-08-23T19:42:01.624Z,7.70
2023-08-23T19:44:29.789Z,5.00
2023-08-23T19:46:57.857Z,6.00
2023-08-23T19:49:26.433Z,13.40
2023-08-23T19:51:54.636Z,12.20
2023-08-23T19:54:22.687Z,13.40
2023-08-23T19:56:50.807Z,23.00
2023-08-23T19:59:18.924Z,14.40
2023-08-23T20:01:49.313Z,13.10
2023-08-23T20:04:17.629Z,16.20
2023-08-23T20:06:46.141Z,13.10
2023-08-23T20:09:14.278Z,8.40
2023-08-23T20:11:43.370Z,7.20
2023-08-23T20:14:11.443Z,7.30
2023-08-23T20:16:39.513Z,5.60
2023-08-23T20:19:07.522Z,6.20
2023-08-23T20:21:35.665Z,5.00
2023-08-23T20:24:03.983Z,3.50
2023-08-23T20:26:32.625Z,4.60
2023-08-23T20:29:02.013Z,5.70
2023-08-23T20:31:30.116Z,4.80
2023-08-23T20:33:58.378Z,4.40
2023-08-23T20:36:27.452Z,4.50
2023-08-23T20:38:55.680Z,3.90
2023-08-23T20:41:23.801Z,3.60
2023-08-23T20:43:53.912Z,3.40
2023-08-23T20:46:22.037Z,4.40
2023-08-23T20:48:50.430Z,6.40
2023-08-23T20:51:18.478Z,7.90
2023-08-23T20:53:46.455Z,12.60
2023-08-23T20:56:16.403Z,16.00
2023-08-23T20:58:44.529Z,16.70
2023-08-23T21:01:13.863Z,12.90
2023-08-23T21:03:42.282Z,8.90
2023-08-23T21:06:10.654Z,7.60
2023-08-23T21:08:38.925Z,6.30
2023-08-23T21:11:06.997Z,4.70
2023-08-23T21:13:35.414Z,3.70
2023-08-23T21:16:03.646Z,3.40
2023-08-23T21:18:31.823Z,4.50
2023-08-23T21:20:59.987Z,5.10
2023-08-23T21:23:29.617Z,3.80
2023-08-23T21:25:57.980Z,3.50
2023-08-23T21:28:26.157Z,2.80
2023-08-23T21:30:54.362Z,2.70
2023-08-23T21:33:23.620Z,4.00
2023-08-23T21:35:52.111Z,3.40
2023-08-23T21:38:20.493Z,3.40
2023-08-23T21:40:59.153Z,2.90
2023-08-23T21:43:28.652Z,4.30
2023-08-23T21:45:56.714Z,4.00
2023-08-23T21:48:25.892Z,3.60
2023-08-23T21:50:53.983Z,2.60
2023-08-23T21:53:22.225Z,3.30
2023-08-23T21:55:57.314Z,2.90
2023-08-23T21:58:30.643Z,3.40
2023-08-23T22:01:03.923Z,3.20
2023-08-23T22:03:33.537Z,3.30
2023-08-23T22:06:07.461Z,3.30
2023-08-23T22:08:40.537Z,3.40
2023-08-23T22:11:12.114Z,3.50
2023-08-23T22:13:43.132Z,4.00
2023-08-23T22:16:12.551Z,3.00
2023-08-23T22:18:41.216Z,4.70
2023-08-23T22:21:11.403Z,4.10
2023-08-23T22:23:39.720Z,3.60
2023-08-23T22:26:07.991Z,4.50
2023-08-23T22:28:36.171Z,3.20
2023-08-23T22:31:04.561Z,4.00
2023-08-23T22:33:32.927Z,3.80
2023-08-23T22:36:01.179Z,4.60
2023-08-23T22:38:29.358Z,2.60
2023-08-23T22:40:57.811Z,2.80
2023-08-23T22:43:26.295Z,2.90
2023-08-23T22:45:55.037Z,3.70
2023-08-23T22:48:23.490Z,3.90
2023-08-23T22:50:52.275Z,4.40
2023-08-23T22:53:20.281Z,5.00
2023-08-23T22:55:48.348Z,4.40
2023-08-23T22:58:16.582Z,4.50
2023-08-23T23:00:44.856Z,2.80
2023-08-23T23:03:13.076Z,5.00
2023-08-23T23:05:41.124Z,2.60
2023-08-23T23:08:09.357Z,3.40
2023-08-23T23:10:37.734Z,3.50
2023-08-23T23:13:06.132Z,5.90
2023-08-23T23:15:34.320Z,4.80
2023-08-23T23:18:02.396Z,4.00
2023-08-23T23:20:30.450Z,4.50
2023-08-23T23:22:58.815Z,5.60
2023-08-23T23:25:26.898Z,4.80
2023-08-23T23:27:55.176Z,4.10
2023-08-23T23:30:23.470Z,4.10
2023-08-23T23:32:52.055Z,4.30
2023-08-23T23:35:20.255Z,5.80
2023-08-23T23:37:49.017Z,5.20
2023-08-23T23:40:17.988Z,6.40
2023-08-23T23:42:46.194Z,5.60
2023-08-23T23:45:34.570Z,5.40
2023-08-23T23:48:03.939Z,5.60
2023-08-23T23:50:33.204Z,4.00
2023-08-23T23:53:01.958Z,4.00
2023-08-23T23:55:30.317Z,4.20
2023-08-23T23:57:58.536Z,4.60
